Time;durP1;ratioP1;P1;durP2;ratioP2;P2;SDS_P1;SDS_P2;PMS_P1;PMS_P2;Temp;Humidity;BMP_temperature;BMP_pressure;BME280_temperature;BME280_humidity;BME280_pressure;Samples;Min_cycle;Max_cycle;Signal;HPM_P1;HPM_P2
2022/12/12 00:01:17;;;;;;;;;;;20.50;99.90;;;;;;5056048;28;19919;-70
2022/12/12 00:03:44;;;;;;;;;;;20.10;99.90;;;;;;5055408;28;19916;-69
2022/12/12 00:06:11;;;;;;;;;;;20.10;99.90;;;;;;5055875;28;19912;-72
2022/12/12 00:08:37;;;;;;;;;;;20.20;99.90;;;;;;5055264;28;20399;-70
2022/12/12 00:11:05;;;;;;;;;;;20.30;99.90;;;;;;5054979;28;19921;-71
2022/12/12 00:13:32;;;;;;;;;;;20.40;99.90;;;;;;5056132;28;19917;-72
2022/12/12 00:15:59;;;;;;;;;;;20.50;99.90;;;;;;5055013;28;19909;-71
2022/12/12 00:18:26;;;;;;;;;;;20.60;99.90;;;;;;5055883;28;20011;-70
2022/12/12 00:20:53;;;;;;;;;;;20.70;99.90;;;;;;5054792;28;20436;-71
2022/12/12 00:23:20;;;;;;;;;;;20.70;99.90;;;;;;5053691;28;19913;-71
2022/12/12 00:25:57;;;;;;;;;;;20.80;99.90;;;;;;5055661;28;19962;-71
2022/12/12 00:28:24;;;;;;;;;;;20.80;99.90;;;;;;5055129;28;20376;-70
2022/12/12 00:30:51;;;;;;;;;;;20.90;99.90;;;;;;5046675;28;20283;-70
2022/12/12 00:33:18;;;;;;;;;;;20.90;99.90;;;;;;5055386;28;19913;-70
2022/12/12 00:35:50;;;;;;;;;;;21.10;99.90;;;;;;5054745;28;19908;-68
2022/12/12 00:38:21;;;;;;;;;;;21.10;99.90;;;;;;5054782;28;19983;-69
2022/12/12 00:40:48;;;;;;;;;;;21.20;99.90;;;;;;5054533;28;20367;-70
2022/12/12 00:43:15;;;;;;;;;;;21.00;99.90;;;;;;5055538;28;19920;-71
2022/12/12 00:45:42;;;;;;;;;;;21.10;99.90;;;;;;5054258;28;20283;-70
2022/12/12 00:48:08;;;;;;;;;;;21.20;99.90;;;;;;5055379;28;19994;-71
2022/12/12 00:50:35;;;;;;;;;;;21.20;99.90;;;;;;5054631;28;19909;-73
2022/12/12 00:53:02;;;;;;;;;;;21.10;99.90;;;;;;5052837;28;19955;-71
2022/12/12 00:55:29;;;;;;;;;;;21.10;99.90;;;;;;5055161;28;20318;-71
2022/12/12 00:57:55;;;;;;;;;;;21.10;99.90;;;;;;5054303;28;19929;-71
2022/12/12 01:00:22;;;;;;;;;;;21.10;99.90;;;;;;5054900;28;19954;-70
2022/12/12 01:02:49;;;;;;;;;;;21.10;99.90;;;;;;5053936;28;20019;-71
2022/12/12 01:05:16;;;;;;;;;;;21.10;99.90;;;;;;5055113;28;20344;-71
2022/12/12 01:07:43;;;;;;;;;;;21.00;99.90;;;;;;5054083;28;20264;-70
2022/12/12 01:10:10;;;;;;;;;;;20.90;99.90;;;;;;5054940;28;20390;-69
2022/12/12 01:12:37;;;;;;;;;;;20.90;99.90;;;;;;5054028;28;19917;-71
2022/12/12 01:15:05;;;;;;;;;;;21.10;99.90;;;;;;5054712;28;19915;-70
2022/12/12 01:17:36;;;;;;;;;;;21.20;99.90;;;;;;5053771;28;19927;-70
2022/12/12 01:20:07;;;;;;;;;;;21.50;99.90;;;;;;5054385;28;19913;-69
2022/12/12 01:22:36;;;;;;;;;;;21.40;99.90;;;;;;5054387;28;19909;-71
2022/12/12 01:25:02;;;;;;;;;;;21.10;99.90;;;;;;5053180;28;19999;-70
2022/12/12 01:27:29;;;;;;;;;;;21.00;99.90;;;;;;5054551;28;19908;-70
2022/12/12 01:30:00;;;;;;;;;;;21.10;99.90;;;;;;5053662;28;20055;-70
2022/12/12 01:32:31;;;;;;;;;;;21.10;99.90;;;;;;5054633;28;19916;-71
2022/12/12 01:34:58;;;;;;;;;;;21.20;99.90;;;;;;5053561;28;20368;-70
2022/12/12 01:37:24;;;;;;;;;;;21.20;99.90;;;;;;5054271;28;20375;-71
2022/12/12 01:39:51;;;;;;;;;;;21.20;99.90;;;;;;5053252;28;20003;-66
2022/12/12 01:42:18;;;;;;;;;;;21.20;99.90;;;;;;5054274;28;20001;-72
2022/12/12 01:44:47;;;;;;;;;;;21.40;99.90;;;;;;5053065;28;20375;-71
2022/12/12 01:47:15;;;;;;;;;;;21.50;99.90;;;;;;5054208;28;19909;-70
2022/12/12 01:49:58;;;;;;;;;;;21.50;99.90;;;;;;5053558;28;19966;-71
2022/12/12 01:52:30;;;;;;;;;;;21.50;99.90;;;;;;5053184;28;19993;-71
2022/12/12 01:54:59;;;;;;;;;;;21.40;99.90;;;;;;5052274;28;19920;-70
2022/12/12 01:57:28;;;;;;;;;;;21.40;99.90;;;;;;5053745;28;20020;-69
2022/12/12 01:59:55;;;;;;;;;;;21.50;99.90;;;;;;5052921;28;19966;-69
2022/12/12 02:02:22;;;;;;;;;;;21.60;99.90;;;;;;5053858;28;20393;-70
2022/12/12 02:04:49;;;;;;;;;;;21.60;99.90;;;;;;5053003;28;19917;-70
2022/12/12 02:07:16;;;;;;;;;;;21.60;99.90;;;;;;5053938;28;19908;-71
2022/12/12 02:09:43;;;;;;;;;;;21.80;99.90;;;;;;5052369;28;19919;-69
2022/12/12 02:12:14;;;;;;;;;;;21.70;99.90;;;;;;5052647;28;19913;-68
2022/12/12 02:14:43;;;;;;;;;;;21.70;99.90;;;;;;5053596;28;19909;-67
2022/12/12 02:17:25;;;;;;;;;;;21.70;99.90;;;;;;5052455;28;19921;-70
2022/12/12 02:19:52;;;;;;;;;;;21.80;99.90;;;;;;5053972;28;19916;-69
2022/12/12 02:22:46;;;;;;;;;;;21.80;99.90;;;;;;5051964;28;19943;-69
2022/12/12 02:25:16;;;;;;;;;;;21.80;99.90;;;;;;5011073;28;19913;-69
2022/12/12 02:28:11;;;;;;;;;;;21.80;99.90;;;;;;5033351;28;20286;-69
2022/12/12 02:30:56;;;;;;;;;;;21.90;99.90;;;;;;5036095;28;19912;-69
2022/12/12 02:33:32;;;;;;;;;;;21.90;99.90;;;;;;5052714;28;19952;-63
2022/12/12 02:36:14;;;;;;;;;;;22.10;99.90;;;;;;5053440;28;19909;-65
2022/12/12 02:38:47;;;;;;;;;;;22.30;99.90;;;;;;5052427;28;20011;-67
2022/12/12 02:41:14;;;;;;;;;;;22.30;99.90;;;;;;5052606;28;19913;-64
2022/12/12 02:43:59;;;;;;;;;;;22.50;99.90;;;;;;5053364;28;20390;-67
2022/12/12 02:46:28;;;;;;;;;;;22.50;99.90;;;;;;5052414;28;19913;-70
2022/12/12 02:49:01;;;;;;;;;;;22.40;99.90;;;;;;5053075;28;20031;-68
2022/12/12 02:51:29;;;;;;;;;;;22.40;99.90;;;;;;5052529;28;19916;-70
2022/12/12 02:53:58;;;;;;;;;;;22.60;99.90;;;;;;5051361;28;19978;-70
2022/12/12 02:56:43;;;;;;;;;;;22.50;99.90;;;;;;5052952;28;20011;-64
2022/12/12 02:59:12;;;;;;;;;;;22.60;99.90;;;;;;5051915;28;19932;-70
2022/12/12 03:01:54;;;;;;;;;;;22.50;99.90;;;;;;5053219;28;19935;-70
2022/12/12 03:10:02;;;;;;;;;;;22.40;99.90;;;;;;5053098;28;20024;-69
2022/12/12 03:12:31;;;;;;;;;;;22.40;99.90;;;;;;5052273;28;19923;-70
2022/12/12 03:15:01;;;;;;;;;;;22.50;99.90;;;;;;5052665;28;19936;-64
2022/12/12 03:17:34;;;;;;;;;;;22.60;99.90;;;;;;5051195;28;19935;-70
2022/12/12 03:20:11;;;;;;;;;;;22.70;99.90;;;;;;5052909;28;20002;-70
2022/12/12 03:22:49;;;;;;;;;;;22.70;99.90;;;;;;5052542;28;19921;-71
2022/12/12 03:25:26;;;;;;;;;;;22.80;99.90;;;;;;5056925;28;19919;-71
2022/12/12 03:28:21;;;;;;;;;;;23.00;99.90;;;;;;5055922;28;19935;-70
2022/12/12 03:30:52;;;;;;;;;;;23.50;99.90;;;;;;5039468;28;19912;-71
2022/12/12 03:33:19;;;;;;;;;;;23.60;99.90;;;;;;5056044;28;19966;-71
2022/12/12 03:35:47;;;;;;;;;;;23.80;99.90;;;;;;5056722;28;19962;-69
2022/12/12 03:38:19;;;;;;;;;;;24.20;99.90;;;;;;5055763;28;19983;-71
2022/12/12 03:40:48;;;;;;;;;;;24.40;99.90;;;;;;5056599;28;19909;-69
2022/12/12 03:43:18;;;;;;;;;;;24.50;99.90;;;;;;5055970;28;19966;-69
2022/12/12 03:45:55;;;;;;;;;;;24.60;99.90;;;;;;5055305;28;20376;-71
2022/12/12 03:48:21;;;;;;;;;;;24.80;99.90;;;;;;5056634;28;19965;-68
2022/12/12 03:50:50;;;;;;;;;;;24.90;99.90;;;;;;5050796;28;19917;-67
2022/12/12 03:53:19;;;;;;;;;;;25.10;99.90;;;;;;5039456;28;19959;-68
2022/12/12 03:55:49;;;;;;;;;;;25.30;99.50;;;;;;5056298;28;19909;-70
2022/12/12 03:58:18;;;;;;;;;;;25.60;98.10;;;;;;5055263;28;20399;-66
2022/12/12 04:00:47;;;;;;;;;;;25.50;99.70;;;;;;5055915;28;20054;-65
2022/12/12 04:03:23;;;;;;;;;;;25.50;99.00;;;;;;5055266;28;19958;-68
2022/12/12 04:12:57;;;;;;;;;;;25.90;97.90;;;;;;5055618;28;20012;-64
2022/12/12 04:14:45;;;;;;;;;;;25.90;98.90;;;;;;5054385;28;19919;-64
2022/12/12 04:17:14;;;;;;;;;;;25.60;97.90;;;;;;5055700;28;19923;-70
2022/12/12 04:25:31;;;;;;;;;;;25.70;98.10;;;;;;5056102;28;20005;-69
2022/12/12 04:28:00;;;;;;;;;;;25.60;98.90;;;;;;5054980;28;20420;-69
2022/12/12 04:30:28;;;;;;;;;;;25.70;97.80;;;;;;5054352;28;20016;-66
2022/12/12 04:32:55;;;;;;;;;;;25.90;97.80;;;;;;5055331;28;19943;-69
2022/12/12 04:35:33;;;;;;;;;;;25.90;97.30;;;;;;5054110;28;19912;-68
2022/12/12 04:38:02;;;;;;;;;;;25.60;97.30;;;;;;5054601;28;20361;-67
2022/12/12 04:40:31;;;;;;;;;;;25.50;96.90;;;;;;5055389;28;19999;-67
2022/12/12 04:43:04;;;;;;;;;;;25.60;97.70;;;;;;5054502;28;19921;-70
2022/12/12 04:45:33;;;;;;;;;;;25.60;97.70;;;;;;5055256;28;19909;-64
2022/12/12 04:48:01;;;;;;;;;;;25.50;97.60;;;;;;5054651;28;19912;-68
2022/12/12 04:50:30;;;;;;;;;;;25.40;95.90;;;;;;5054281;28;19971;-69
2022/12/12 04:52:58;;;;;;;;;;;25.70;96.10;;;;;;5052262;28;19913;-67
2022/12/12 04:55:35;;;;;;;;;;;25.80;95.60;;;;;;5055325;28;20003;-70
2022/12/12 04:58:03;;;;;;;;;;;25.70;95.10;;;;;;5054224;28;19975;-66
2022/12/12 05:00:31;;;;;;;;;;;25.60;94.40;;;;;;5055209;28;20318;-66
2022/12/12 05:02:58;;;;;;;;;;;25.80;93.90;;;;;;5045698;28;20361;-64
2022/12/12 05:05:27;;;;;;;;;;;25.80;95.00;;;;;;5054866;28;19958;-67
2022/12/12 05:08:05;;;;;;;;;;;25.90;96.30;;;;;;5055020;28;19959;-64
2022/12/12 05:10:32;;;;;;;;;;;25.70;94.90;;;;;;5053615;28;20003;-67
2022/12/12 05:13:00;;;;;;;;;;;25.50;94.70;;;;;;5054476;28;20287;-68
2022/12/12 05:15:27;;;;;;;;;;;25.70;93.80;;;;;;5054730;28;20343;-64
2022/12/12 05:17:57;;;;;;;;;;;26.00;94.10;;;;;;5054465;28;20020;-67
2022/12/12 05:20:24;;;;;;;;;;;26.10;93.20;;;;;;5053961;28;20003;-66
2022/12/12 05:22:50;;;;;;;;;;;26.00;94.80;;;;;;5053529;28;19913;-68
2022/12/12 05:25:17;;;;;;;;;;;25.80;94.10;;;;;;5053112;28;19913;-64
2022/12/12 05:27:44;;;;;;;;;;;25.60;93.80;;;;;;5054444;28;19909;-64
2022/12/12 05:30:11;;;;;;;;;;;25.60;93.90;;;;;;5053593;28;19916;-64
2022/12/12 05:32:37;;;;;;;;;;;25.50;94.10;;;;;;5053420;28;20517;-65
2022/12/12 05:35:05;;;;;;;;;;;25.40;94.20;;;;;;5054238;28;19915;-66
2022/12/12 05:37:32;;;;;;;;;;;25.40;93.90;;;;;;5053074;28;19935;-66
2022/12/12 05:39:59;;;;;;;;;;;25.40;95.00;;;;;;5038569;28;19919;-64
2022/12/12 05:42:25;;;;;;;;;;;25.50;94.30;;;;;;5034357;28;19915;-66
2022/12/12 05:44:52;;;;;;;;;;;25.70;94.40;;;;;;5046543;28;20267;-66
2022/12/12 05:47:19;;;;;;;;;;;25.80;94.70;;;;;;5052933;28;19966;-66
2022/12/12 05:49:45;;;;;;;;;;;25.80;93.30;;;;;;5053651;28;19915;-66
2022/12/12 05:52:12;;;;;;;;;;;25.80;92.40;;;;;;5050769;28;19919;-66
2022/12/12 05:54:42;;;;;;;;;;;25.70;93.00;;;;;;5051831;28;19913;-64
2022/12/12 05:57:08;;;;;;;;;;;25.70;92.10;;;;;;5050505;28;19924;-69
2022/12/12 05:59:35;;;;;;;;;;;25.60;91.30;;;;;;5047514;28;19967;-67
2022/12/12 06:02:02;;;;;;;;;;;25.50;91.50;;;;;;5051556;28;20475;-64
2022/12/12 06:04:28;;;;;;;;;;;25.50;91.00;;;;;;5050350;28;19927;-65
2022/12/12 06:06:55;;;;;;;;;;;25.40;91.40;;;;;;5051453;28;19913;-65
2022/12/12 06:09:22;;;;;;;;;;;25.10;90.60;;;;;;5050489;28;20012;-70
2022/12/12 06:11:48;;;;;;;;;;;25.00;91.50;;;;;;5047428;28;19947;-65
2022/12/12 06:14:15;;;;;;;;;;;24.90;91.60;;;;;;5051256;28;20015;-65
2022/12/12 06:16:42;;;;;;;;;;;24.80;91.30;;;;;;5050718;28;20429;-65
2022/12/12 06:19:08;;;;;;;;;;;24.90;91.00;;;;;;5050779;28;19960;-65
2022/12/12 06:21:35;;;;;;;;;;;24.80;92.40;;;;;;5051422;28;20376;-66
2022/12/12 06:24:04;;;;;;;;;;;24.90;90.40;;;;;;5049223;28;19923;-64
2022/12/12 06:26:31;;;;;;;;;;;25.10;91.40;;;;;;5050446;28;19919;-65
2022/12/12 06:28:57;;;;;;;;;;;25.20;90.00;;;;;;5051009;28;19982;-64
2022/12/12 06:31:24;;;;;;;;;;;25.30;87.20;;;;;;5050422;28;20374;-65
2022/12/12 06:33:51;;;;;;;;;;;25.30;86.60;;;;;;5050719;28;19955;-67
2022/12/12 06:36:22;;;;;;;;;;;25.20;85.80;;;;;;5050212;28;20007;-65
2022/12/12 06:38:53;;;;;;;;;;;25.00;83.90;;;;;;5049748;28;19916;-64
2022/12/12 06:41:20;;;;;;;;;;;24.90;85.40;;;;;;5050946;28;20362;-64
2022/12/12 06:43:47;;;;;;;;;;;25.00;84.80;;;;;;5050162;28;19913;-70
2022/12/12 06:46:15;;;;;;;;;;;25.00;85.20;;;;;;5051574;28;19909;-66
2022/12/12 06:48:42;;;;;;;;;;;24.90;85.70;;;;;;5049891;28;19913;-66
2022/12/12 06:51:10;;;;;;;;;;;24.60;86.30;;;;;;5050485;28;20291;-69
2022/12/12 06:53:36;;;;;;;;;;;24.70;85.10;;;;;;5049145;28;19958;-67
2022/12/12 06:56:12;;;;;;;;;;;24.80;86.00;;;;;;5050848;28;20336;-66
2022/12/12 06:58:39;;;;;;;;;;;24.80;83.50;;;;;;5049674;28;20344;-65
2022/12/12 07:01:07;;;;;;;;;;;24.80;85.60;;;;;;5050737;28;19989;-65
2022/12/12 07:03:33;;;;;;;;;;;24.80;81.70;;;;;;5049028;28;19919;-67
2022/12/12 07:06:03;;;;;;;;;;;24.60;79.20;;;;;;5051086;28;19924;-64
2022/12/12 07:08:30;;;;;;;;;;;24.60;79.70;;;;;;5049380;28;20279;-68
2022/12/12 07:11:02;;;;;;;;;;;24.50;81.40;;;;;;5050642;28;19921;-70
2022/12/12 07:13:28;;;;;;;;;;;24.50;79.50;;;;;;5049984;28;19909;-68
2022/12/12 07:15:55;;;;;;;;;;;24.60;77.20;;;;;;5050481;28;19913;-70
2022/12/12 07:18:22;;;;;;;;;;;24.60;78.10;;;;;;5049061;28;20101;-64
2022/12/12 07:20:49;;;;;;;;;;;24.50;77.90;;;;;;5053911;28;19924;-67
2022/12/12 07:23:15;;;;;;;;;;;24.50;77.40;;;;;;5029917;28;19909;-70
2022/12/12 07:25:43;;;;;;;;;;;24.50;78.10;;;;;;5027934;28;19987;-65
2022/12/12 07:28:11;;;;;;;;;;;24.50;76.80;;;;;;5037116;28;19919;-68
2022/12/12 07:30:39;;;;;;;;;;;24.30;75.10;;;;;;5044226;28;19916;-71
2022/12/12 07:33:06;;;;;;;;;;;24.20;76.00;;;;;;5032568;28;20393;-70
2022/12/12 07:35:33;;;;;;;;;;;24.20;77.40;;;;;;5044479;28;19964;-68
2022/12/12 07:38:00;;;;;;;;;;;24.10;77.50;;;;;;5042922;28;19920;-72
2022/12/12 07:40:26;;;;;;;;;;;24.10;72.80;;;;;;5043009;28;19917;-68
2022/12/12 07:42:53;;;;;;;;;;;24.00;72.70;;;;;;5042443;28;19913;-62
2022/12/12 07:45:20;;;;;;;;;;;23.90;74.50;;;;;;5044061;28;19971;-62
2022/12/12 07:47:47;;;;;;;;;;;23.90;71.40;;;;;;5043210;28;20369;-62
2022/12/12 07:50:14;;;;;;;;;;;23.70;72.60;;;;;;5043947;28;19978;-64
2022/12/12 07:52:41;;;;;;;;;;;23.60;73.00;;;;;;5043116;28;19913;-65
2022/12/12 07:55:08;;;;;;;;;;;23.60;73.10;;;;;;5043541;28;19962;-68
2022/12/12 07:57:38;;;;;;;;;;;23.60;74.70;;;;;;5042265;28;19924;-63
2022/12/12 08:00:05;;;;;;;;;;;23.50;75.40;;;;;;5043283;28;19912;-63
2022/12/12 08:02:32;;;;;;;;;;;23.40;75.00;;;;;;5043147;28;19916;-63
2022/12/12 08:04:59;;;;;;;;;;;23.50;74.50;;;;;;5043462;28;19947;-68
2022/12/12 08:07:25;;;;;;;;;;;23.50;74.00;;;;;;5042132;28;19924;-63
2022/12/12 08:09:52;;;;;;;;;;;23.40;73.90;;;;;;5044711;28;19916;-62
2022/12/12 08:12:19;;;;;;;;;;;23.40;73.90;;;;;;5047351;28;19923;-62
2022/12/12 08:14:45;;;;;;;;;;;23.40;78.50;;;;;;5046240;28;19971;-62
2022/12/12 08:17:12;;;;;;;;;;;23.20;72.90;;;;;;5047407;28;19927;-63
2022/12/12 08:19:39;;;;;;;;;;;23.10;76.10;;;;;;5046641;28;19927;-63
2022/12/12 08:22:07;;;;;;;;;;;23.10;73.50;;;;;;5046632;28;19913;-63
2022/12/12 08:24:34;;;;;;;;;;;23.00;72.70;;;;;;5046547;28;19920;-62
2022/12/12 08:27:00;;;;;;;;;;;23.00;72.10;;;;;;5046306;28;20061;-63
2022/12/12 08:29:27;;;;;;;;;;;23.00;74.80;;;;;;5046350;28;20433;-64
2022/12/12 08:31:54;;;;;;;;;;;23.00;73.70;;;;;;5045918;28;19928;-66
2022/12/12 08:34:20;;;;;;;;;;;22.90;71.40;;;;;;5045952;28;20634;-64
2022/12/12 08:36:48;;;;;;;;;;;22.80;71.60;;;;;;5045417;28;19924;-65
2022/12/12 08:39:15;;;;;;;;;;;22.80;73.50;;;;;;5045775;28;19951;-65
2022/12/12 08:41:43;;;;;;;;;;;22.80;75.80;;;;;;5046473;28;20027;-63
2022/12/12 08:44:10;;;;;;;;;;;22.70;72.40;;;;;;5045586;28;19916;-64
2022/12/12 08:46:38;;;;;;;;;;;22.60;72.80;;;;;;5046868;28;20442;-68
2022/12/12 08:49:04;;;;;;;;;;;22.60;73.10;;;;;;5045482;28;20003;-63
2022/12/12 08:51:31;;;;;;;;;;;22.60;73.50;;;;;;5044688;28;19923;-66
2022/12/12 08:53:58;;;;;;;;;;;22.60;73.50;;;;;;5046038;28;19916;-66
2022/12/12 08:56:25;;;;;;;;;;;22.50;75.10;;;;;;5045178;28;19917;-64
2022/12/12 08:58:51;;;;;;;;;;;22.40;77.40;;;;;;5044836;28;19960;-65
2022/12/12 09:01:22;;;;;;;;;;;22.40;73.10;;;;;;5044234;28;20003;-63
2022/12/12 09:03:49;;;;;;;;;;;22.40;73.00;;;;;;5043866;28;19920;-63
2022/12/12 09:06:17;;;;;;;;;;;22.40;73.90;;;;;;5044370;28;19919;-63
2022/12/12 09:08:44;;;;;;;;;;;22.30;74.00;;;;;;5045631;28;19916;-63
2022/12/12 09:11:11;;;;;;;;;;;22.30;74.90;;;;;;5044770;28;19948;-63
2022/12/12 09:13:38;;;;;;;;;;;22.20;75.30;;;;;;5045791;28;19955;-63
2022/12/12 09:16:05;;;;;;;;;;;22.20;73.60;;;;;;5045214;28;19912;-63
2022/12/12 09:18:35;;;;;;;;;;;22.10;73.70;;;;;;5045070;28;20315;-63
2022/12/12 09:21:03;;;;;;;;;;;22.10;73.90;;;;;;5034125;28;19945;-65
2022/12/12 09:23:29;;;;;;;;;;;22.00;73.30;;;;;;5034507;28;19927;-64
2022/12/12 09:25:56;;;;;;;;;;;22.00;74.10;;;;;;5052492;28;19916;-65
2022/12/12 09:28:24;;;;;;;;;;;22.00;74.00;;;;;;5051119;28;19913;-67
2022/12/12 09:30:51;;;;;;;;;;;21.90;72.60;;;;;;5051222;28;19968;-65
2022/12/12 09:33:18;;;;;;;;;;;21.80;75.00;;;;;;5052276;28;20004;-66
2022/12/12 09:35:45;;;;;;;;;;;21.80;73.10;;;;;;5035591;28;19956;-64
2022/12/12 09:38:11;;;;;;;;;;;21.80;73.00;;;;;;5048812;28;20011;-65
2022/12/12 09:40:38;;;;;;;;;;;21.70;73.10;;;;;;5052012;28;19935;-66
2022/12/12 09:43:05;;;;;;;;;;;21.70;74.70;;;;;;5049998;28;19913;-64
2022/12/12 09:45:33;;;;;;;;;;;21.70;73.50;;;;;;5052036;28;20327;-65
2022/12/12 09:48:01;;;;;;;;;;;21.70;73.30;;;;;;5051521;28;20014;-66
2022/12/12 09:50:28;;;;;;;;;;;21.60;76.40;;;;;;5052053;28;19943;-64
2022/12/12 09:52:58;;;;;;;;;;;21.60;75.80;;;;;;5051057;28;20364;-63
2022/12/12 09:55:34;;;;;;;;;;;21.50;76.70;;;;;;5051085;28;19924;-62
2022/12/12 09:58:00;;;;;;;;;;;21.50;74.90;;;;;;5050046;28;19929;-64
2022/12/12 10:00:29;;;;;;;;;;;21.50;75.50;;;;;;5050798;28;19916;-62
2022/12/12 10:03:04;;;;;;;;;;;21.40;75.90;;;;;;5051407;28;19952;-62
2022/12/12 10:05:36;;;;;;;;;;;21.40;77.40;;;;;;5050882;28;20379;-62
2022/12/12 10:08:21;;;;;;;;;;;21.40;75.60;;;;;;5050090;28;19931;-61
2022/12/12 10:10:50;;;;;;;;;;;21.40;76.00;;;;;;5051381;28;19926;-64
2022/12/12 10:13:20;;;;;;;;;;;21.30;75.20;;;;;;5049615;28;19916;-62
2022/12/12 10:15:51;;;;;;;;;;;21.30;75.20;;;;;;5051610;28;19970;-65
2022/12/12 10:18:22;;;;;;;;;;;21.30;75.40;;;;;;5046331;28;19940;-62
2022/12/12 10:20:52;;;;;;;;;;;21.20;76.80;;;;;;5044415;28;19917;-65
2022/12/12 10:23:18;;;;;;;;;;;21.20;77.30;;;;;;5043857;28;19970;-65
2022/12/12 10:26:06;;;;;;;;;;;21.10;75.20;;;;;;5044135;28;19920;-63
2022/12/12 10:28:34;;;;;;;;;;;21.10;74.90;;;;;;5043199;28;20066;-66
2022/12/12 10:31:04;;;;;;;;;;;21.10;75.80;;;;;;5044372;28;19923;-62
2022/12/12 10:33:31;;;;;;;;;;;21.00;76.80;;;;;;5043501;28;20469;-63
2022/12/12 10:36:07;;;;;;;;;;;21.00;77.60;;;;;;5044812;28;19978;-68
2022/12/12 10:38:33;;;;;;;;;;;21.00;77.50;;;;;;5043642;28;19925;-63
2022/12/12 10:41:14;;;;;;;;;;;21.00;78.70;;;;;;5042731;28;19912;-68
2022/12/12 10:43:44;;;;;;;;;;;20.90;75.20;;;;;;5044419;28;19917;-64
2022/12/12 10:46:25;;;;;;;;;;;20.90;76.20;;;;;;5043464;28;19932;-68
2022/12/12 10:48:53;;;;;;;;;;;20.90;77.30;;;;;;5044469;28;20682;-69
2022/12/12 10:51:21;;;;;;;;;;;20.90;77.50;;;;;;5043781;28;19970;-69
2022/12/12 10:53:48;;;;;;;;;;;20.80;77.30;;;;;;5043509;28;19927;-68
2022/12/12 10:56:26;;;;;;;;;;;20.80;81.00;;;;;;5028633;28;19913;-68
2022/12/12 10:59:01;;;;;;;;;;;20.80;76.80;;;;;;5024000;28;19929;-68
2022/12/12 11:01:35;;;;;;;;;;;20.80;77.00;;;;;;5040624;28;19939;-69
2022/12/12 11:04:03;;;;;;;;;;;20.70;77.00;;;;;;5044494;28;19924;-68
2022/12/12 11:06:31;;;;;;;;;;;20.70;77.50;;;;;;5041781;28;20604;-69
2022/12/12 11:08:59;;;;;;;;;;;20.60;76.70;;;;;;5043409;28;19924;-68
2022/12/12 11:11:27;;;;;;;;;;;20.60;76.90;;;;;;5043945;28;19913;-68
2022/12/12 11:13:55;;;;;;;;;;;20.60;77.00;;;;;;5043146;28;20645;-66
2022/12/12 11:16:26;;;;;;;;;;;20.60;78.90;;;;;;5044305;28;19917;-66
2022/12/12 11:18:58;;;;;;;;;;;20.60;77.80;;;;;;5043336;28;19913;-62
2022/12/12 11:21:25;;;;;;;;;;;20.60;76.10;;;;;;5043442;28;20019;-66
2022/12/12 11:23:53;;;;;;;;;;;20.60;79.30;;;;;;5044088;28;20380;-65
2022/12/12 11:26:21;;;;;;;;;;;20.50;76.20;;;;;;5042893;28;19919;-67
2022/12/12 11:28:57;;;;;;;;;;;20.60;79.00;;;;;;5043820;28;20367;-69
2022/12/12 11:31:27;;;;;;;;;;;20.50;76.90;;;;;;5043009;28;19913;-67
2022/12/12 11:33:57;;;;;;;;;;;20.50;77.70;;;;;;5043066;28;19920;-68
2022/12/12 11:36:29;;;;;;;;;;;20.40;76.60;;;;;;5042489;28;19943;-68
2022/12/12 11:38:57;;;;;;;;;;;20.40;77.30;;;;;;5043563;28;19927;-67
2022/12/12 11:41:23;;;;;;;;;;;20.40;77.50;;;;;;5043213;28;19917;-70
2022/12/12 11:43:50;;;;;;;;;;;20.40;76.10;;;;;;5044436;28;19923;-69
2022/12/12 11:46:18;;;;;;;;;;;20.30;75.80;;;;;;5047055;28;19963;-69
2022/12/12 11:48:51;;;;;;;;;;;20.30;77.70;;;;;;5047852;28;19917;-68
2022/12/12 11:51:33;;;;;;;;;;;20.20;76.10;;;;;;5046832;28;19920;-69
2022/12/12 11:54:00;;;;;;;;;;;20.30;76.40;;;;;;5047670;28;19959;-68
2022/12/12 11:56:40;;;;;;;;;;;20.30;77.70;;;;;;5046558;28;19959;-69
2022/12/12 11:59:22;;;;;;;;;;;20.20;78.80;;;;;;5047245;28;19971;-71
2022/12/12 12:01:49;;;;;;;;;;;20.10;75.40;;;;;;5045854;28;20337;-69
2022/12/12 12:04:20;;;;;;;;;;;20.20;78.90;;;;;;5047196;28;19913;-70
2022/12/12 12:07:12;;;;;;;;;;;20.20;76.90;;;;;;5045516;28;20642;-70
2022/12/12 12:12:53;;;;;;;;;;;20.20;76.40;;;;;;4982599;28;19963;-70
2022/12/12 12:15:26;;;;;;;;;;;20.10;77.80;;;;;;5045048;28;19963;-69
2022/12/12 12:18:01;;;;;;;;;;;20.10;76.90;;;;;;5045959;28;19947;-69
2022/12/12 12:20:56;;;;;;;;;;;20.10;77.30;;;;;;5047513;28;19952;-69
2022/12/12 12:23:32;;;;;;;;;;;20.10;76.60;;;;;;5033113;28;19917;-67
2022/12/12 12:26:34;;;;;;;;;;;20.10;77.00;;;;;;5047100;28;19919;-68
2022/12/12 12:29:01;;;;;;;;;;;20.10;77.80;;;;;;4908093;29;19927;-69
2022/12/12 12:31:27;;;;;;;;;;;20.00;78.20;;;;;;5003948;28;20283;-70
2022/12/12 12:34:14;;;;;;;;;;;20.00;78.00;;;;;;5046933;28;19978;-69
2022/12/12 12:37:09;;;;;;;;;;;20.00;79.90;;;;;;5044835;28;19925;-68
2022/12/12 12:39:51;;;;;;;;;;;20.00;77.80;;;;;;5047075;28;20291;-69
2022/12/12 12:42:36;;;;;;;;;;;20.10;79.30;;;;;;5045459;28;20388;-67
2022/12/12 12:45:14;;;;;;;;;;;20.00;77.60;;;;;;5045942;28;19917;-64
2022/12/12 12:47:41;;;;;;;;;;;19.90;76.90;;;;;;5050311;28;19956;-68
2022/12/12 12:50:21;;;;;;;;;;;19.90;76.80;;;;;;5054574;28;19917;-67
2022/12/12 12:52:47;;;;;;;;;;;19.90;78.00;;;;;;5054030;28;19913;-62
2022/12/12 12:55:18;;;;;;;;;;;19.80;77.70;;;;;;5054921;28;19916;-69
2022/12/12 12:57:46;;;;;;;;;;;19.90;77.40;;;;;;5053976;28;19920;-68
2022/12/12 13:00:15;;;;;;;;;;;19.80;77.90;;;;;;5055214;28;19916;-66
2022/12/12 13:02:44;;;;;;;;;;;19.80;81.30;;;;;;5054173;28;19916;-67
2022/12/12 13:05:23;;;;;;;;;;;19.80;78.20;;;;;;5055060;28;19919;-69
2022/12/12 13:08:10;;;;;;;;;;;19.80;78.90;;;;;;5054028;28;19924;-69
2022/12/12 13:10:40;;;;;;;;;;;19.70;77.70;;;;;;5053842;28;19920;-68
2022/12/12 13:13:09;;;;;;;;;;;19.70;80.00;;;;;;5053803;28;19915;-68
2022/12/12 13:15:40;;;;;;;;;;;19.70;79.90;;;;;;5054911;28;20350;-69
2022/12/12 13:18:12;;;;;;;;;;;19.60;78.20;;;;;;5054312;28;19916;-69
2022/12/12 13:20:43;;;;;;;;;;;19.60;78.70;;;;;;5054729;28;19999;-67
2022/12/12 13:23:22;;;;;;;;;;;19.60;78.90;;;;;;5052570;28;20359;-70
2022/12/12 13:25:49;;;;;;;;;;;19.50;78.40;;;;;;5054517;28;19916;-69
2022/12/12 13:28:22;;;;;;;;;;;19.50;78.70;;;;;;5054110;28;19913;-68
2022/12/12 13:30:57;;;;;;;;;;;19.50;80.10;;;;;;5054445;28;19924;-66
2022/12/12 13:33:37;;;;;;;;;;;19.60;81.00;;;;;;5053899;28;19916;-68
2022/12/12 13:36:14;;;;;;;;;;;19.50;80.70;;;;;;5054394;28;19913;-66
2022/12/12 13:38:45;;;;;;;;;;;19.50;79.40;;;;;;5052502;28;20011;-68
2022/12/12 13:41:12;;;;;;;;;;;19.50;79.50;;;;;;5034361;28;19913;-68
2022/12/12 13:43:39;;;;;;;;;;;19.50;84.00;;;;;;5049870;28;19920;-64
2022/12/12 13:46:20;;;;;;;;;;;19.50;82.60;;;;;;5054355;28;19916;-67
2022/12/12 13:49:10;;;;;;;;;;;19.50;81.30;;;;;;5036319;28;19910;-67
2022/12/12 13:51:43;;;;;;;;;;;19.40;79.50;;;;;;5026496;28;19913;-69
2022/12/12 13:54:10;;;;;;;;;;;19.40;80.30;;;;;;5054117;28;19916;-69
2022/12/12 13:56:39;;;;;;;;;;;19.30;79.40;;;;;;5053798;28;20375;-68
2022/12/12 13:59:29;;;;;;;;;;;19.30;80.10;;;;;;5053110;28;19967;-69
2022/12/12 14:02:14;;;;;;;;;;;19.30;80.60;;;;;;5043623;28;19909;-68
2022/12/12 14:04:42;;;;;;;;;;;19.30;82.50;;;;;;5053438;28;19913;-68
2022/12/12 14:07:12;;;;;;;;;;;19.20;79.70;;;;;;5052003;28;20368;-69
2022/12/12 14:09:40;;;;;;;;;;;19.20;80.80;;;;;;5054143;28;20000;-68
2022/12/12 14:12:25;;;;;;;;;;;19.20;80.10;;;;;;5052862;28;19917;-69
2022/12/12 14:15:21;;;;;;;;;;;19.20;80.40;;;;;;5053789;28;19909;-68
2022/12/12 14:17:57;;;;;;;;;;;19.20;79.90;;;;;;5035809;28;20015;-69
2022/12/12 14:20:26;;;;;;;;;;;19.20;81.00;;;;;;5053873;28;19956;-67
2022/12/12 14:22:59;;;;;;;;;;;19.20;80.10;;;;;;5051768;28;19920;-65
2022/12/12 14:25:31;;;;;;;;;;;19.20;80.70;;;;;;5053605;28;20374;-69
2022/12/12 14:28:21;;;;;;;;;;;19.30;83.20;;;;;;5053025;28;20004;-68
2022/12/12 14:30:54;;;;;;;;;;;19.30;85.30;;;;;;5045347;28;20368;-69
2022/12/12 14:33:39;;;;;;;;;;;19.20;82.20;;;;;;5056644;28;19913;-65
2022/12/12 14:36:15;;;;;;;;;;;19.10;84.10;;;;;;5053883;28;19909;-62
2022/12/12 14:38:42;;;;;;;;;;;19.20;88.90;;;;;;5052522;28;19928;-68
2022/12/12 14:41:12;;;;;;;;;;;19.10;83.70;;;;;;5053224;28;19913;-62
2022/12/12 14:43:41;;;;;;;;;;;19.10;81.60;;;;;;5052670;28;20025;-61
2022/12/12 14:46:17;;;;;;;;;;;19.10;83.60;;;;;;5052504;28;20371;-61
2022/12/12 14:48:44;;;;;;;;;;;19.10;82.00;;;;;;5052595;28;19913;-62
2022/12/12 14:51:11;;;;;;;;;;;19.10;81.90;;;;;;5052696;28;20018;-61
2022/12/12 14:53:37;;;;;;;;;;;19.10;84.80;;;;;;5053344;28;19915;-62
2022/12/12 14:56:08;;;;;;;;;;;19.10;82.10;;;;;;5052732;28;20414;-61